createdAt,value
2019-02-21T13:06:08.391Z,1018.89
2019-02-21T13:07:08.356Z,1018.93
2019-02-21T13:08:08.352Z,1018.88
2019-02-21T13:09:08.335Z,1018.86
2019-02-21T13:10:08.325Z,1018.88
2019-02-21T13:11:08.338Z,1018.83
2019-02-21T13:12:08.296Z,1018.89
2019-02-21T13:13:08.287Z,1018.92
2019-02-21T13:14:08.312Z,1018.92
2019-02-21T13:15:08.265Z,1018.90
2019-02-21T13:16:08.420Z,1018.85
2019-02-21T13:17:08.253Z,1018.94
2019-02-21T13:18:15.227Z,1018.93
2019-02-21T13:19:09.210Z,1018.97
2019-02-21T13:20:08.207Z,1018.88
2019-02-21T13:21:08.193Z,1018.88
2019-02-21T13:22:08.311Z,1018.89
2019-02-21T13:23:08.198Z,1018.83
2019-02-21T13:24:08.211Z,1018.84
2019-02-21T13:25:08.190Z,1018.85
2019-02-21T13:26:08.234Z,1018.84
2019-02-21T13:27:08.123Z,1018.84
2019-02-21T13:28:08.108Z,1018.87
2019-02-21T13:29:08.153Z,1018.84
2019-02-21T13:30:08.137Z,1018.84
2019-02-21T13:31:08.109Z,1018.85
2019-02-21T13:32:08.065Z,1018.82
2019-02-21T13:33:08.054Z,1018.82
2019-02-21T13:34:08.086Z,1018.84
2019-02-21T13:35:08.044Z,1018.87
2019-02-21T13:36:08.084Z,1018.73
2019-02-21T13:37:08.067Z,1018.77
2019-02-21T13:38:08.020Z,1018.75
2019-02-21T13:39:07.988Z,1018.75
2019-02-21T13:40:08.003Z,1018.80
2019-02-21T13:41:07.956Z,1018.77
2019-02-21T13:42:08.014Z,1018.80
2019-02-21T13:43:08.008Z,1018.74
2019-02-21T13:44:08.125Z,1018.77
2019-02-21T13:45:07.911Z,1018.79
2019-02-21T13:46:07.920Z,1018.74
2019-02-21T13:47:07.999Z,1018.72
2019-02-21T13:48:07.934Z,1018.76
2019-02-21T13:49:07.878Z,1018.78
2019-02-21T13:50:07.852Z,1018.75
2019-02-21T13:51:07.873Z,1018.78
2019-02-21T13:52:07.870Z,1018.81
2019-02-21T13:53:07.874Z,1018.74
2019-02-21T13:54:07.801Z,1018.76
2019-02-21T13:55:07.820Z,1018.84
2019-02-21T13:56:07.777Z,1018.86
2019-02-21T13:57:07.836Z,1018.81
2019-02-21T13:58:07.848Z,1018.79
2019-02-21T13:59:07.800Z,1018.78
2019-02-21T14:00:07.787Z,1018.81
2019-02-21T14:01:07.751Z,1018.79
2019-02-21T14:02:07.785Z,1018.85
2019-02-21T14:03:07.740Z,1018.82
2019-02-21T14:04:07.763Z,1018.80
2019-02-21T14:05:07.841Z,1018.86
2019-02-21T14:06:07.669Z,1018.81
2019-02-21T14:07:07.657Z,1018.84
2019-02-21T14:08:07.739Z,1018.84
2019-02-21T14:09:07.690Z,1018.82
2019-02-21T14:10:07.701Z,1018.82
2019-02-21T14:11:07.632Z,1018.86
2019-02-21T14:12:07.639Z,1018.88
2019-02-21T14:13:07.605Z,1018.83
2019-02-21T14:14:07.581Z,1018.83
2019-02-21T14:15:07.759Z,1018.87
2019-02-21T14:16:07.562Z,1018.83
2019-02-21T14:17:07.543Z,1018.81
2019-02-21T14:18:07.555Z,1018.83
2019-02-21T14:19:07.521Z,1018.84
2019-02-21T14:20:07.533Z,1018.84
2019-02-21T14:21:07.497Z,1018.91
2019-02-21T14:22:07.481Z,1018.90
2019-02-21T14:23:07.465Z,1018.88
2019-02-21T14:24:07.487Z,1018.87
2019-02-21T14:25:07.458Z,1018.87
2019-02-21T14:26:07.439Z,1018.91
2019-02-21T14:27:08.838Z,1018.90
2019-02-21T14:28:07.428Z,1018.87
2019-02-21T14:29:07.439Z,1018.90
2019-02-21T14:30:07.386Z,1018.88
2019-02-21T14:31:07.568Z,1018.93
2019-02-21T14:32:07.369Z,1018.90
2019-02-21T14:33:07.364Z,1018.89
2019-02-21T14:34:07.373Z,1018.87
2019-02-21T14:35:07.333Z,1018.88
2019-02-21T14:36:15.194Z,1018.89
2019-02-21T14:37:08.305Z,1018.84
2019-02-21T14:38:07.295Z,1018.89
2019-02-21T14:39:07.315Z,1018.92
2019-02-21T14:40:07.306Z,1018.89
2019-02-21T14:41:07.536Z,1018.87
2019-02-21T14:42:07.255Z,1018.89
2019-02-21T14:43:07.234Z,1018.86
2019-02-21T14:44:07.241Z,1018.79
2019-02-21T14:45:07.216Z,1018.81
2019-02-21T14:46:07.211Z,1018.80
2019-02-21T14:47:08.127Z,1018.79
2019-02-21T14:48:07.178Z,1018.81
2019-02-21T14:49:07.274Z,1018.81
2019-02-21T14:50:07.186Z,1018.86
2019-02-21T14:51:07.170Z,1018.91
2019-02-21T14:52:07.131Z,1018.90
2019-02-21T14:53:07.117Z,1018.90
2019-02-21T14:54:07.108Z,1018.91
2019-02-21T14:55:07.150Z,1018.92
2019-02-21T14:56:07.090Z,1018.91
2019-02-21T14:57:07.085Z,1018.92
2019-02-21T14:58:07.064Z,1018.92
2019-02-21T14:59:07.044Z,1018.93
2019-02-21T15:00:07.071Z,1018.92
2019-02-21T15:01:07.053Z,1018.96
2019-02-21T15:02:07.011Z,1018.99
2019-02-21T15:03:07.003Z,1019.00
2019-02-21T15:04:06.997Z,1019.03
2019-02-21T15:05:09.926Z,1019.06
2019-02-21T15:06:06.998Z,1019.02
2019-02-21T15:07:06.966Z,1019.04
2019-02-21T15:08:06.952Z,1019.03
2019-02-21T15:09:06.946Z,1019.05
2019-02-21T15:10:06.948Z,1019.01
2019-02-21T15:11:06.913Z,1018.97
2019-02-21T15:12:06.909Z,1018.99
2019-02-21T15:13:06.891Z,1018.98
2019-02-21T15:14:06.884Z,1018.97
2019-02-21T15:15:06.903Z,1018.97
2019-02-21T15:16:06.859Z,1019.04
2019-02-21T15:17:06.841Z,1019.06
2019-02-21T15:18:10.346Z,1019.06
2019-02-21T15:19:06.824Z,1019.08
2019-02-21T15:20:06.813Z,1019.12
2019-02-21T15:21:06.896Z,1019.10
2019-02-21T15:22:06.795Z,1019.13
2019-02-21T15:23:06.781Z,1019.14
2019-02-21T15:24:06.766Z,1019.13
2019-02-21T15:25:06.768Z,1019.12
2019-02-21T15:26:06.772Z,1019.14
2019-02-21T15:27:08.763Z,1019.13
2019-02-21T15:28:06.720Z,1019.17
2019-02-21T15:29:06.709Z,1019.19
2019-02-21T15:30:06.716Z,1019.19
2019-02-21T15:31:06.711Z,1019.22
2019-02-21T15:32:11.015Z,1019.24
2019-02-21T15:33:07.664Z,1019.21
2019-02-21T15:34:06.657Z,1019.20
2019-02-21T15:35:06.652Z,1019.18
2019-02-21T15:36:06.663Z,1019.18
2019-02-21T15:37:06.613Z,1019.17
2019-02-21T15:38:06.613Z,1019.14
2019-02-21T15:39:06.595Z,1019.16
2019-02-21T15:40:08.735Z,1019.19
2019-02-21T15:41:06.615Z,1019.22
2019-02-21T15:42:06.581Z,1019.20
2019-02-21T15:43:06.588Z,1019.17
2019-02-21T15:44:06.541Z,1019.19
2019-02-21T15:45:06.527Z,1019.22
2019-02-21T15:46:07.417Z,1019.17
2019-02-21T15:47:06.538Z,1019.17
2019-02-21T15:48:06.572Z,1019.20
2019-02-21T15:49:06.479Z,1019.34
2019-02-21T15:50:06.473Z,1019.29
2019-02-21T15:51:06.500Z,1019.34
2019-02-21T15:52:06.484Z,1019.25
2019-02-21T15:53:06.444Z,1019.27
2019-02-21T15:54:06.431Z,1019.28
2019-02-21T15:55:12.455Z,1019.34
2019-02-21T15:56:07.397Z,1019.35
2019-02-21T15:57:06.426Z,1019.38
2019-02-21T15:58:06.376Z,1019.39
2019-02-21T15:59:06.370Z,1019.38
2019-02-21T16:00:06.365Z,1019.41
2019-02-21T16:01:06.345Z,1019.43
2019-02-21T16:02:06.342Z,1019.40
2019-02-21T16:03:06.343Z,1019.43
2019-02-21T16:04:06.302Z,1019.48
2019-02-21T16:05:06.292Z,1019.49
2019-02-21T16:06:06.278Z,1019.55
2019-02-21T16:07:06.270Z,1019.62
2019-02-21T16:08:06.283Z,1019.55
2019-02-21T16:09:15.828Z,1019.52
2019-02-21T16:10:07.234Z,1019.52
2019-02-21T16:11:06.219Z,1019.50
2019-02-21T16:12:06.467Z,1019.49
2019-02-21T16:13:06.298Z,1019.49
2019-02-21T16:14:06.194Z,1019.48
2019-02-21T16:15:06.210Z,1019.51
2019-02-21T16:16:06.166Z,1019.50
2019-02-21T16:17:06.151Z,1019.50
2019-02-21T16:18:06.175Z,1019.53
2019-02-21T16:19:06.129Z,1019.51
2019-02-21T16:20:06.151Z,1019.49
2019-02-21T16:21:06.099Z,1019.56
2019-02-21T16:22:06.088Z,1019.50
2019-02-21T16:23:06.071Z,1019.51
2019-02-21T16:24:06.098Z,1019.57
2019-02-21T16:25:06.051Z,1019.54
2019-02-21T16:26:06.048Z,1019.63
2019-02-21T16:27:06.040Z,1019.55
2019-02-21T16:28:06.036Z,1019.50
2019-02-21T16:29:06.009Z,1019.50
2019-02-21T16:30:06.004Z,1019.47
2019-02-21T16:31:05.976Z,1019.42
2019-02-21T16:32:05.970Z,1019.45
2019-02-21T16:33:06.275Z,1019.46
2019-02-21T16:34:05.951Z,1019.49
2019-02-21T16:35:05.931Z,1019.42
2019-02-21T16:36:05.924Z,1019.43
2019-02-21T16:37:05.911Z,1019.45
2019-02-21T16:38:05.931Z,1019.47
2019-02-21T16:39:05.886Z,1019.44
2019-02-21T16:40:05.874Z,1019.44
2019-02-21T16:41:05.878Z,1019.43
2019-02-21T16:42:05.847Z,1019.43
2019-02-21T16:43:05.829Z,1019.43
2019-02-21T16:44:07.068Z,1019.39
2019-02-21T16:45:05.815Z,1019.43
2019-02-21T16:46:08.028Z,1019.46
2019-02-21T16:47:05.903Z,1019.45
2019-02-21T16:48:05.876Z,1019.45
2019-02-21T16:49:05.788Z,1019.43
2019-02-21T16:50:05.745Z,1019.46
2019-02-21T16:51:05.746Z,1019.44
2019-02-21T16:52:05.731Z,1019.50
2019-02-21T16:53:05.729Z,1019.45
2019-02-21T16:54:05.733Z,1019.46
2019-02-21T16:55:05.690Z,1019.49
2019-02-21T16:56:05.675Z,1019.46
2019-02-21T16:57:05.661Z,1019.51
2019-02-21T16:58:05.651Z,1019.50
2019-02-21T16:59:05.679Z,1019.50
2019-02-21T17:00:05.629Z,1019.50
2019-02-21T17:01:05.635Z,1019.49
2019-02-21T17:02:05.604Z,1019.50
2019-02-21T17:03:05.607Z,1019.48
2019-02-21T17:04:05.576Z,1019.46
2019-02-21T17:05:05.600Z,1019.55
2019-02-21T17:06:05.552Z,1019.56
2019-02-21T17:07:13.504Z,1019.56
2019-02-21T17:08:06.582Z,1019.62
2019-02-21T17:09:05.526Z,1019.63
2019-02-21T17:10:05.544Z,1019.61
2019-02-21T17:11:05.502Z,1019.65
2019-02-21T17:12:05.480Z,1019.64
2019-02-21T17:13:05.491Z,1019.68
2019-02-21T17:14:05.465Z,1019.69
2019-02-21T17:15:05.506Z,1019.69
2019-02-21T17:16:05.434Z,1019.69
2019-02-21T17:17:05.425Z,1019.75
2019-02-21T17:18:05.414Z,1019.73
2019-02-21T17:19:05.467Z,1019.77
2019-02-21T17:20:05.417Z,1019.73
2019-02-21T17:21:05.381Z,1019.80
2019-02-21T17:22:05.362Z,1019.83
2019-02-21T17:23:05.356Z,1019.86
2019-02-21T17:24:05.355Z,1019.88
2019-02-21T17:25:05.362Z,1019.88
2019-02-21T17:26:05.355Z,1019.86
2019-02-21T17:27:05.312Z,1019.85
2019-02-21T17:28:05.293Z,1019.88
2019-02-21T17:29:05.281Z,1019.88
2019-02-21T17:30:05.268Z,1019.99
2019-02-21T17:31:05.299Z,1019.94
2019-02-21T17:32:05.250Z,1019.94
2019-02-21T17:33:05.245Z,1019.95
2019-02-21T17:34:05.221Z,1019.99
2019-02-21T17:35:05.241Z,1019.98
2019-02-21T17:36:05.263Z,1020.04
2019-02-21T17:37:05.191Z,1020.04
2019-02-21T17:38:05.173Z,1020.08
2019-02-21T17:39:05.161Z,1020.08
2019-02-21T17:40:05.153Z,1020.06
2019-02-21T17:41:05.167Z,1020.10
2019-02-21T17:42:05.126Z,1020.12
2019-02-21T17:43:05.113Z,1020.07
2019-02-21T17:44:05.109Z,1020.09
2019-02-21T17:45:05.089Z,1020.14
2019-02-21T17:46:05.121Z,1020.13
2019-02-21T17:47:05.063Z,1020.16
2019-02-21T17:48:05.074Z,1020.19
2019-02-21T17:49:05.052Z,1020.19
2019-02-21T17:50:05.030Z,1020.18
2019-02-21T17:51:05.061Z,1020.24
2019-02-21T17:52:05.016Z,1020.22
2019-02-21T17:53:04.993Z,1020.18
2019-02-21T17:54:05.008Z,1020.19
2019-02-21T17:55:04.966Z,1020.20
2019-02-21T17:56:05.070Z,1020.17
2019-02-21T17:57:04.959Z,1020.17
2019-02-21T17:58:04.930Z,1020.20
2019-02-21T17:59:04.921Z,1020.22
2019-02-21T18:00:04.905Z,1020.24
2019-02-21T18:01:04.924Z,1020.24
2019-02-21T18:02:04.911Z,1020.25
2019-02-21T18:03:04.880Z,1020.32
2019-02-21T18:04:04.860Z,1020.30
2019-02-21T18:05:04.851Z,1020.34
2019-02-21T18:06:04.887Z,1020.28
2019-02-21T18:07:04.845Z,1020.28
2019-02-21T18:08:04.818Z,1020.33
2019-02-21T18:09:04.821Z,1020.34
2019-02-21T18:10:04.787Z,1020.40
2019-02-21T18:11:04.809Z,1020.38
2019-02-21T18:12:04.774Z,1020.36
2019-02-21T18:13:04.824Z,1020.34
2019-02-21T18:14:04.744Z,1020.35
2019-02-21T18:15:04.736Z,1020.34
2019-02-21T18:16:04.730Z,1020.46
2019-02-21T18:17:04.721Z,1020.40
2019-02-21T18:18:04.725Z,1020.44
2019-02-21T18:19:04.695Z,1020.49
2019-02-21T18:20:04.668Z,1020.56
2019-02-21T18:21:04.673Z,1020.54
2019-02-21T18:22:04.657Z,1020.54
2019-02-21T18:23:04.768Z,1020.59
2019-02-21T18:24:04.628Z,1020.61
2019-02-21T18:25:04.616Z,1020.61
2019-02-21T18:26:04.599Z,1020.57
2019-02-21T18:27:04.603Z,1020.61
2019-02-21T18:28:04.617Z,1020.61
2019-02-21T18:29:04.563Z,1020.65
2019-02-21T18:30:04.562Z,1020.66
2019-02-21T18:31:04.549Z,1020.60
2019-02-21T18:32:04.538Z,1020.64
2019-02-21T18:33:04.568Z,1020.63
2019-02-21T18:34:04.568Z,1020.65
2019-02-21T18:35:04.502Z,1020.70
2019-02-21T18:36:04.483Z,1020.72
2019-02-21T18:37:04.483Z,1020.73
2019-02-21T18:38:04.484Z,1020.76
2019-02-21T18:39:04.503Z,1020.77
2019-02-21T18:40:04.437Z,1020.73
2019-02-21T18:41:04.445Z,1020.76
2019-02-21T18:42:04.421Z,1020.74
2019-02-21T18:43:04.459Z,1020.76
2019-02-21T18:44:04.396Z,1020.82
2019-02-21T18:45:04.393Z,1020.82
2019-02-21T18:46:04.375Z,1020.76
2019-02-21T18:47:04.357Z,1020.78
2019-02-21T18:48:04.368Z,1020.78
2019-02-21T18:49:04.386Z,1020.79
2019-02-21T18:50:04.321Z,1020.83
2019-02-21T18:51:04.315Z,1020.83
2019-02-21T18:52:04.317Z,1020.81
2019-02-21T18:53:04.287Z,1020.85
2019-02-21T18:54:04.338Z,1020.86
2019-02-21T18:55:04.263Z,1020.87
2019-02-21T18:56:04.275Z,1020.86
2019-02-21T18:57:04.238Z,1020.82
2019-02-21T18:58:04.228Z,1020.86
2019-02-21T18:59:04.258Z,1020.89
2019-02-21T19:00:04.214Z,1020.83
2019-02-21T19:01:04.264Z,1020.82
2019-02-21T19:02:04.195Z,1020.78
2019-02-21T19:03:04.184Z,1020.80
2019-02-21T19:04:04.191Z,1020.80
2019-02-21T19:05:04.161Z,1020.84
2019-02-21T19:06:04.146Z,1020.84
2019-02-21T19:07:04.129Z,1020.83
2019-02-21T19:08:05.447Z,1020.88
2019-02-21T19:09:04.109Z,1020.86
2019-02-21T19:10:04.155Z,1020.84
2019-02-21T19:11:04.094Z,1020.80
2019-02-21T19:12:04.097Z,1020.80
2019-02-21T19:13:04.050Z,1020.80
2019-02-21T19:14:04.125Z,1020.80
2019-02-21T19:15:04.090Z,1020.75
2019-02-21T19:16:04.021Z,1020.71
2019-02-21T19:17:04.014Z,1020.72
2019-02-21T19:18:04.001Z,1020.71
2019-02-21T19:19:04.104Z,1020.71
2019-02-21T19:20:03.995Z,1020.75
2019-02-21T19:21:03.957Z,1020.72
2019-02-21T19:22:03.950Z,1020.75
2019-02-21T19:23:03.931Z,1020.72
2019-02-21T19:24:03.918Z,1020.76
2019-02-21T19:25:03.933Z,1020.78
2019-02-21T19:26:03.922Z,1020.84
2019-02-21T19:27:03.894Z,1020.91
2019-02-21T19:28:03.895Z,1020.90
2019-02-21T19:29:03.883Z,1020.90
2019-02-21T19:30:03.889Z,1020.88
2019-02-21T19:31:03.847Z,1020.94
2019-02-21T19:32:03.825Z,1020.90
2019-02-21T19:33:03.813Z,1020.94
2019-02-21T19:34:03.820Z,1020.91
2019-02-21T19:35:03.788Z,1020.94
2019-02-21T19:36:03.799Z,1020.95
2019-02-21T19:37:03.762Z,1020.99
2019-02-21T19:38:10.516Z,1021.03
2019-02-21T19:39:04.738Z,1021.02
2019-02-21T19:40:03.731Z,1021.03
2019-02-21T19:41:03.791Z,1021.03
2019-02-21T19:42:03.708Z,1021.04
2019-02-21T19:43:03.703Z,1021.06
2019-02-21T19:44:08.807Z,1021.10
2019-02-21T19:45:04.665Z,1021.15
2019-02-21T19:46:03.699Z,1021.17
2019-02-21T19:47:03.647Z,1021.18
2019-02-21T19:48:04.331Z,1021.17
2019-02-21T19:49:03.638Z,1021.18
2019-02-21T19:50:03.609Z,1021.27
2019-02-21T19:51:03.658Z,1021.31
2019-02-21T19:52:03.593Z,1021.32
2019-02-21T19:53:03.589Z,1021.35
2019-02-21T19:54:03.565Z,1021.39
2019-02-21T19:55:03.559Z,1021.38
2019-02-21T19:56:03.562Z,1021.45
2019-02-21T19:57:03.524Z,1021.42
2019-02-21T19:58:03.518Z,1021.49
2019-02-21T19:59:03.531Z,1021.50
2019-02-21T20:00:03.495Z,1021.50
2019-02-21T20:01:03.557Z,1021.50
2019-02-21T20:02:03.474Z,1021.57
2019-02-21T20:03:03.472Z,1021.59
2019-02-21T20:04:03.445Z,1021.55
2019-02-21T20:05:03.449Z,1021.58
2019-02-21T20:06:03.453Z,1021.60
2019-02-21T20:07:03.467Z,1021.60
2019-02-21T20:08:08.528Z,1021.64
2019-02-21T20:09:04.392Z,1021.59
2019-02-21T20:10:03.385Z,1021.65
2019-02-21T20:11:03.418Z,1021.66
2019-02-21T20:12:03.404Z,1021.64
2019-02-21T20:13:03.350Z,1021.69
2019-02-21T20:14:03.343Z,1021.69
2019-02-21T20:15:03.331Z,1021.69
2019-02-21T20:16:03.361Z,1021.69
2019-02-21T20:17:03.339Z,1021.69
2019-02-21T20:18:03.295Z,1021.69
2019-02-21T20:19:03.282Z,1021.69
2019-02-21T20:20:03.298Z,1021.72
2019-02-21T20:21:03.278Z,1021.66
2019-02-21T20:22:03.298Z,1021.68
2019-02-21T20:23:03.274Z,1021.71
2019-02-21T20:24:03.225Z,1021.71
2019-02-21T20:25:03.261Z,1021.70
2019-02-21T20:26:03.203Z,1021.71
2019-02-21T20:27:03.198Z,1021.71
2019-02-21T20:28:03.217Z,1021.70
2019-02-21T20:29:03.198Z,1021.68
2019-02-21T20:30:03.161Z,1021.69
2019-02-21T20:31:03.155Z,1021.67
2019-02-21T20:32:03.183Z,1021.70
2019-02-21T20:33:03.222Z,1021.70
2019-02-21T20:34:03.113Z,1021.69
2019-02-21T20:35:03.104Z,1021.74
2019-02-21T20:36:03.106Z,1021.76
2019-02-21T20:37:03.122Z,1021.76
2019-02-21T20:38:03.079Z,1021.77
2019-02-21T20:39:03.077Z,1021.81
2019-02-21T20:40:03.059Z,1021.81
2019-02-21T20:41:03.037Z,1021.80
2019-02-21T20:42:03.079Z,1021.84
2019-02-21T20:43:03.033Z,1021.85
2019-02-21T20:44:03.029Z,1021.83
2019-02-21T20:45:03.058Z,1021.85
2019-02-21T20:46:02.992Z,1021.85
2019-02-21T20:47:02.976Z,1021.87
2019-02-21T20:48:03.015Z,1021.89
2019-02-21T20:49:02.952Z,1021.92
2019-02-21T20:50:02.936Z,1021.92
2019-02-21T20:51:02.931Z,1021.90
2019-02-21T20:52:02.912Z,1021.98
2019-02-21T20:53:03.063Z,1021.98
2019-02-21T20:54:02.886Z,1021.97
2019-02-21T20:55:02.910Z,1021.96
2019-02-21T20:56:02.868Z,1021.99
2019-02-21T20:57:02.876Z,1021.98
2019-02-21T20:58:02.907Z,1021.96
2019-02-21T20:59:02.850Z,1021.98
2019-02-21T21:00:02.835Z,1022.00
2019-02-21T21:01:02.812Z,1022.00
2019-02-21T21:02:02.804Z,1021.98
2019-02-21T21:03:02.991Z,1021.96
2019-02-21T21:04:02.784Z,1021.97
2019-02-21T21:05:02.788Z,1021.96
2019-02-21T21:06:02.771Z,1021.96
2019-02-21T21:07:02.757Z,1021.95
2019-02-21T21:08:02.794Z,1021.96
2019-02-21T21:09:02.726Z,1021.99
2019-02-21T21:10:02.712Z,1021.99
2019-02-21T21:11:02.699Z,1021.96
2019-02-21T21:12:02.705Z,1021.99
2019-02-21T21:13:02.703Z,1021.97
2019-02-21T21:14:02.658Z,1021.97
2019-02-21T21:15:02.657Z,1021.99
2019-02-21T21:16:02.635Z,1021.98
2019-02-21T21:17:02.619Z,1022.01
2019-02-21T21:18:02.621Z,1022.01
2019-02-21T21:19:02.620Z,1022.04
2019-02-21T21:20:02.582Z,1022.01
2019-02-21T21:21:02.582Z,1022.00
2019-02-21T21:22:02.575Z,1022.01
2019-02-21T21:23:02.549Z,1022.01
2019-02-21T21:24:02.580Z,1022.03
2019-02-21T21:25:02.559Z,1022.06
2019-02-21T21:26:02.526Z,1022.05
2019-02-21T21:27:02.512Z,1022.10
2019-02-21T21:28:02.496Z,1022.13
2019-02-21T21:29:02.513Z,1022.13
2019-02-21T21:30:02.514Z,1022.14
2019-02-21T21:31:02.466Z,1022.15
2019-02-21T21:32:02.444Z,1022.11
2019-02-21T21:33:02.468Z,1022.16
2019-02-21T21:34:02.445Z,1022.15
2019-02-21T21:35:02.434Z,1022.10
2019-02-21T21:36:02.409Z,1022.11
2019-02-21T21:37:02.397Z,1022.16
2019-02-21T21:38:02.382Z,1022.16
2019-02-21T21:39:02.396Z,1022.14
2019-02-21T21:40:02.377Z,1022.16
2019-02-21T21:41:02.338Z,1022.17
2019-02-21T21:42:02.326Z,1022.16
2019-02-21T21:43:02.317Z,1022.17
2019-02-21T21:44:02.357Z,1022.19
2019-02-21T21:45:02.295Z,1022.24
2019-02-21T21:46:02.301Z,1022.22
2019-02-21T21:47:02.272Z,1022.22
2019-02-21T21:48:02.255Z,1022.20
2019-02-21T21:49:02.254Z,1022.26
2019-02-21T21:50:02.240Z,1022.23
2019-02-21T21:51:02.250Z,1022.24
2019-02-21T21:52:02.208Z,1022.20
2019-02-21T21:53:02.197Z,1022.28
2019-02-21T21:54:02.198Z,1022.25
